Flight Track Log - Related Links

Times and Time Zones

All times are in EST time to prevent confusion due to time zone crossing. See the AFL150 flight status page for this flight to view local times or setup timezone preferences in your user account.


Time Position Orientation Groundspeed Altitude Reporting Facility
EST Latitude Longitude Course Direction KTS MPH feet Rate Location/Type
Thu 04:39:00 AM 56.1032 37.2127 316° Northwest  Level FlightAware Approximate
Thu 04:40:00 AM 56.1861 37.0682 316° Northwest  Level FlightAware Approximate
Thu 04:41:00 AM 56.2689 36.9232 316° Northwest  Level FlightAware Approximate
Thu 04:42:00 AM 56.3515 36.7775 316° Northwest  Level FlightAware Approximate
Thu 04:43:00 AM 56.4338 36.6312 316° Northwest  Level FlightAware Approximate
Thu 04:44:00 AM 56.5161 36.4842 315° West  Level FlightAware Approximate
Thu 04:45:00 AM 56.5981 36.3366 315° West  Level FlightAware Approximate
Thu 04:46:00 AM 56.6800 36.1884 315° West  Level FlightAware Approximate
Thu 04:47:00 AM 56.7617 36.0395 315° West  Level FlightAware Approximate
Thu 04:48:00 AM 56.8432 35.8900 315° West  Level FlightAware Approximate
Thu 04:49:00 AM 56.9245 35.7398 315° West  Level FlightAware Approximate
Thu 04:50:00 AM 57.0057 35.5890 315° West  Level FlightAware Approximate
Thu 04:51:00 AM 57.0867 35.4375 315° West  Level FlightAware Approximate
Thu 04:52:00 AM 57.1674 35.2854 314° West  Level FlightAware Approximate
Thu 04:53:00 AM 57.2481 35.1325 314° West  Level FlightAware Approximate
Thu 04:54:00 AM 57.3285 34.9790 314° West  Level FlightAware Approximate
Thu 04:55:00 AM 57.4087 34.8249 314° West  Level FlightAware Approximate
Thu 04:56:00 AM 57.4742 34.6481 312° West  Level Estimated
Thu 04:57:00 AM 57.5519 34.4888 312° West  Level FlightAware Approximate
Thu 04:58:00 AM 57.6293 34.3288 312° West  Level FlightAware Approximate
Thu 04:59:00 AM 57.7065 34.1682 312° West  Level FlightAware Approximate
Thu 05:00:00 AM 57.7836 34.0068 312° West  Level FlightAware Approximate
Thu 05:01:00 AM 57.8604 33.8448 312° West  Level FlightAware Approximate
Thu 05:02:00 AM 57.9370 33.6821 312° West  Level FlightAware Approximate
Thu 05:03:00 AM 58.0134 33.5187 311° West  Level FlightAware Approximate
Thu 05:04:00 AM 58.0896 33.3545 311° West  Level FlightAware Approximate
Thu 05:05:00 AM 58.1656 33.1897 311° West  Level FlightAware Approximate
Thu 05:06:00 AM 58.2413 33.0242 311° West  Level FlightAware Approximate
Thu 05:07:00 AM 58.3169 32.8580 311° West  Level FlightAware Approximate
Thu 05:08:00 AM 58.3923 32.6910 311° West  Level FlightAware Approximate
Thu 05:09:00 AM 58.4674 32.5234 311° West  Level FlightAware Approximate
Thu 05:10:00 AM 58.5423 32.3550 310° West  Level FlightAware Approximate
Thu 05:11:00 AM 58.6170 32.1859 310° West  Level FlightAware Approximate
Thu 05:12:00 AM 58.6914 32.0161 310° West  Level FlightAware Approximate
Thu 05:13:00 AM 58.7656 31.8455 310° West  Level FlightAware Approximate
Thu 05:14:00 AM 58.8396 31.6743 310° West  Level FlightAware Approximate
Thu 05:15:00 AM 58.9134 31.5023 310° West  Level FlightAware Approximate
Thu 05:16:00 AM 58.9870 31.3295 310° West  Level FlightAware Approximate
Thu 05:17:00 AM 59.0603 31.1560 309° West  Level FlightAware Approximate
Thu 05:18:00 AM 59.1334 30.9818 309° West  Level FlightAware Approximate
Thu 05:19:00 AM 59.2062 30.8069 309° West  Level FlightAware Approximate
Thu 05:20:00 AM 59.2789 30.6312 309° West  Level FlightAware Approximate
Thu 05:21:00 AM 59.3512 30.4547 309° West  Level FlightAware Approximate
Thu 05:22:00 AM 59.4234 30.2775 309° West  Level FlightAware Approximate
Thu 05:23:00 AM 59.4953 30.0995 309° West  Level FlightAware Approximate
Thu 05:24:00 AM 59.5669 29.9208 308° West  Level FlightAware Approximate
Thu 05:25:00 AM 59.6383 29.7413 308° West  Level FlightAware Approximate
Thu 05:26:00 AM 59.7095 29.5611 308° West  Level FlightAware Approximate
Thu 05:27:00 AM 59.7804 29.3800 308° West  Level FlightAware Approximate
Thu 05:28:00 AM 59.8511 29.1982 308° West  Level FlightAware Approximate
Thu 05:29:00 AM 59.9215 29.0157 308° West  Level FlightAware Approximate
Thu 05:30:00 AM 59.9917 28.8324 307° West  Level FlightAware Approximate
Thu 05:31:00 AM 60.0616 28.6483 307° West  Level FlightAware Approximate
Thu 05:32:00 AM 60.1312 28.4634 307° West  Level FlightAware Approximate
Thu 05:33:00 AM 60.2006 28.2777 307° West  Level FlightAware Approximate
Thu 05:34:00 AM 60.2697 28.0912 307° West  Level FlightAware Approximate
Thu 05:35:00 AM 60.3386 27.9040 307° West  Level FlightAware Approximate
Thu 05:36:00 AM 60.4072 27.7159 307° West  Level FlightAware Approximate
Thu 05:37:00 AM 60.4756 27.5271 306° West  Level FlightAware Approximate
Thu 05:38:00 AM 60.5436 27.3375 306° West  Level FlightAware Approximate
Thu 05:39:00 AM 60.6114 27.1471 306° West  Level FlightAware Approximate
Thu 05:40:00 AM 60.6790 26.9558 306° West  Level FlightAware Approximate
Thu 05:41:00 AM 60.7462 26.7638 306° West  Level FlightAware Approximate
Thu 05:42:00 AM 60.8132 26.5710 306° West  Level FlightAware Approximate
Thu 05:43:00 AM 60.8799 26.3773 305° West  Level FlightAware Approximate
Thu 05:44:00 AM 60.9463 26.1829 305° West  Level FlightAware Approximate
Thu 05:45:00 AM 61.0124 25.9876 305° West  Level FlightAware Approximate
Thu 05:46:00 AM 61.0783 25.7915 305° West  Level FlightAware Approximate
Thu 05:47:00 AM 61.1439 25.5947 305° West  Level FlightAware Approximate
Thu 05:48:00 AM 61.2091 25.3969 304° West  Level FlightAware Approximate
Thu 05:49:00 AM 61.2742 25.1984 304° West  Level FlightAware Approximate
Thu 05:50:00 AM 61.3388 24.9991 304° West  Level FlightAware Approximate
Thu 05:51:00 AM 61.4033 24.7989 304° West  Level FlightAware Approximate
Thu 05:52:00 AM 61.4674 24.5979 304° West  Level FlightAware Approximate
Thu 05:53:00 AM 61.5312 24.3961 304° West  Level FlightAware Approximate
Thu 05:54:00 AM 61.5947 24.1934 303° West  Level FlightAware Approximate
Thu 05:55:00 AM 61.6579 23.9899 303° West  Level FlightAware Approximate
Thu 05:56:00 AM 61.7209 23.7856 303° West  Level FlightAware Approximate
Thu 05:56:08 AM 58.8099 21.6984 303° West 432 497 34,000  Level FlightAware ADS-B
Thu 05:56:29 AM 58.8201 21.6184 284° West 429 494 34,000  Level FlightAware ADS-B
Thu 05:57:09 AM 58.8389 21.4716 284° West 432 497 34,000  Level FlightAware ADS-B
Thu 05:57:47 AM 58.8570 21.3286 284° West 430 495 34,000 77 Level FlightAware ADS-B
Thu 05:58:27 AM 58.8601 21.3040 284° West 436 502 34,100 412 Climbing FlightAware ADS-B
Thu 05:59:29 AM 58.9136 20.9593 287° West 443 510 34,700 757 Climbing FlightAware ADS-B
Thu 06:00:10 AM 58.9398 20.8049 288° West 441 507 35,400 907 Climbing FlightAware ADS-B
Thu 06:00:55 AM 58.9689 20.6279 288° West 436 502 36,000 456 Climbing FlightAware ADS-B
Thu 06:01:29 AM 58.9888 20.5055 288° West 438 504 36,000  Level FlightAware ADS-B
Thu 06:02:07 AM 59.0125 20.3587 287° West 437 503 36,000  Level FlightAware ADS-B
Thu 06:02:46 AM 59.0356 20.2146 287° West 430 495 36,000  Level FlightAware ADS-B
Thu 06:03:27 AM 59.0593 20.0654 287° West 430 495 36,000  Level FlightAware ADS-B
Thu 06:04:08 AM 59.0827 19.9164 287° West 426 490 36,000  Level FlightAware ADS-B
Thu 06:04:48 AM 59.1060 19.7674 287° West 426 490 36,000  Level FlightAware ADS-B
Thu 06:05:09 AM 59.1173 19.6945 287° West 428 493 36,000  Level FlightAware ADS-B
Thu 06:05:29 AM 59.1293 19.6168 287° West 428 493 36,000  Level FlightAware ADS-B
Thu 06:05:49 AM 59.1395 19.5509 287° West 428 493 36,000  Level FlightAware ADS-B
Thu 06:06:09 AM 59.1517 19.4708 287° West 428 493 36,000  Level FlightAware ADS-B
Thu 06:06:29 AM 59.1630 19.3970 287° West 428 493 36,000  Level FlightAware ADS-B
Thu 06:06:49 AM 59.1742 19.3232 287° West 428 493 36,000  Level FlightAware ADS-B
Thu 06:07:09 AM 59.1854 19.2492 286° West 428 493 36,000  Level FlightAware ADS-B
Thu 06:07:29 AM 59.1959 19.1798 286° West 428 493 36,000  Level FlightAware ADS-B
Thu 06:07:49 AM 59.2066 19.1081 286° West 428 493 36,000  Level FlightAware ADS-B
Thu 06:08:09 AM 59.2184 19.0291 286° West 429 494 36,000  Level FlightAware ADS-B
Thu 06:08:29 AM 59.2295 18.9541 286° West 429 494 36,000  Level FlightAware ADS-B
Thu 06:08:48 AM 59.2401 18.8819 286° West 429 494 36,000  Level FlightAware ADS-B
Thu 06:09:28 AM 59.2621 18.7321 286° West 430 495 36,000  Level FlightAware ADS-B
Thu 06:10:10 AM 59.2840 18.5818 286° West 430 495 36,000  Level FlightAware ADS-B
Thu 06:10:48 AM 59.3047 18.4382 286° West 431 496 36,000  Level FlightAware ADS-B
Thu 06:11:29 AM 59.3271 18.2822 286° West 432 497 36,000  Level FlightAware ADS-B
Thu 06:12:11 AM 59.3481 18.1330 286° West 433 498 36,000  Level FlightAware ADS-B
Thu 06:12:50 AM 59.3687 17.9861 285° West 433 498 36,000  Level FlightAware ADS-B
Thu 06:13:31 AM 59.3913 17.8238 285° West 434 499 36,000  Level FlightAware ADS-B
Thu 06:14:10 AM 59.4107 17.6822 285° West 435 501 36,000  Level FlightAware ADS-B
Thu 06:14:40 AM 59.4275 17.5596 285° West 437 503 36,000  Level FlightAware ADS-B
Thu 06:15:10 AM 59.4429 17.4454 285° West 438 504 36,000  Level FlightAware ADS-B
Thu 06:15:40 AM 59.4582 17.3314 285° West 439 505 36,000  Level FlightAware ADS-B
Thu 06:16:10 AM 59.4735 17.2167 285° West 439 505 36,000  Level FlightAware ADS-B
Thu 06:16:41 AM 59.4896 17.0956 285° West 438 504 36,000  Level FlightAware ADS-B
Thu 06:17:11 AM 59.5024 16.9974 285° West 440 506 36,000  Level FlightAware ADS-B
Thu 06:17:50 AM 59.5247 16.8269 284° West 439 505 36,000  Level FlightAware ADS-B
Thu 06:18:20 AM 59.5393 16.7126 284° West 436 502 36,000  Level FlightAware ADS-B
Thu 06:18:50 AM 59.5541 16.5974 284° West 438 504 36,000  Level FlightAware ADS-B
Thu 06:19:20 AM 59.5688 16.4812 284° West 437 503 36,000  Level FlightAware ADS-B
Thu 06:20:00 AM 59.5886 16.3237 284° West 437 503 36,000  Level FlightAware ADS-B
Thu 06:20:30 AM 59.6014 16.2212 284° West 439 505 36,000  Level FlightAware ADS-B
Thu 06:20:34 AM 59.6045 16.1957 284° West 437 503 36,000  Level FlightAware ADS-B
Thu 06:21:20 AM 59.6267 16.0166 284° West 436 502 36,000  Level FlightAware ADS-B
Thu 06:21:50 AM 59.6398 15.9092 284° West 436 502 36,000  Level FlightAware ADS-B
Thu 06:22:20 AM 59.6547 15.7864 284° West 436 502 36,000  Level FlightAware ADS-B
Thu 06:22:50 AM 59.6684 15.6724 283° West 435 501 36,000  Level FlightAware ADS-B
Thu 06:23:23 AM 59.6792 15.5821 283° West 434 499 36,000  Level FlightAware ADS-B
Thu 06:25:00 AM 59.7384 15.2309 289° West  Level Estimated
Thu 06:26:00 AM 59.7746 15.0131 288° West  Level Estimated
Thu 06:27:00 AM 59.8104 14.7948 288° West  Level Estimated
Thu 06:28:00 AM 59.8459 14.5760 288° West  Level Estimated
Thu 06:29:00 AM 59.8810 14.3567 288° West  Level Estimated
Thu 06:30:00 AM 59.9157 14.1370 288° West  Level Estimated
Thu 06:31:00 AM 59.9501 13.9169 287° West  Level Estimated
Thu 06:32:00 AM 59.9841 13.6963 287° West  Level Estimated
Thu 06:33:00 AM 60.0177 13.4752 287° West  Level Estimated
Thu 06:34:00 AM 60.0509 13.2537 287° West  Level Estimated
Thu 06:35:00 AM 60.0838 13.0317 287° West  Level Estimated
Thu 06:36:00 AM 60.1163 12.8094 286° West  Level Estimated
Thu 06:37:00 AM 60.1485 12.5865 286° West  Level Estimated
Thu 06:38:00 AM 60.1802 12.3632 286° West  Level Estimated
Thu 06:39:00 AM 60.2116 12.1396 286° West  Level Estimated
Thu 06:40:00 AM 60.2426 11.9154 286° West  Level Estimated
Thu 06:41:00 AM 60.2733 11.6909 285° West  Level Estimated
Thu 06:42:00 AM 60.3035 11.4659 285° West  Level Estimated
Thu 06:43:00 AM 60.3334 11.2405 285° West  Level Estimated
Thu 06:44:00 AM 60.3629 11.0147 285° West  Level Estimated
Thu 06:45:00 AM 60.3920 10.7886 285° West  Level Estimated
Thu 06:46:00 AM 60.4207 10.5620 284° West  Level Estimated
Thu 06:47:00 AM 60.4491 10.3350 284° West  Level Estimated
Thu 06:48:00 AM 60.4770 10.1076 284° West  Level Estimated
Thu 06:49:00 AM 60.5046 9.8798 284° West  Level Estimated
Thu 06:50:00 AM 60.5317 9.6516 284° West  Level Estimated
Thu 06:51:00 AM 60.5585 9.4231 284° West  Level Estimated
Thu 06:52:00 AM 60.5849 9.1942 283° West  Level Estimated
Thu 06:53:00 AM 60.6109 8.9649 283° West  Level Estimated
Thu 06:54:00 AM 60.6365 8.7352 283° West  Level Estimated
Thu 06:55:00 AM 60.6617 8.5052 283° West  Level Estimated
Thu 06:56:00 AM 60.6865 8.2748 283° West  Level Estimated
Thu 06:57:00 AM 60.7110 8.0441 282° West  Level Estimated
Thu 06:58:00 AM 60.7350 7.8130 282° West  Level Estimated
Thu 06:59:00 AM 60.7586 7.5816 282° West  Level Estimated
Thu 07:00:00 AM 60.7818 7.3498 282° West  Level Estimated
Thu 07:01:00 AM 60.8047 7.1178 281° West  Level Estimated
Thu 07:02:00 AM 60.8271 6.8853 281° West  Level Estimated
Thu 07:03:00 AM 60.8491 6.6526 281° West  Level Estimated
Thu 07:04:00 AM 60.8708 6.4195 281° West  Level Estimated
Thu 07:05:00 AM 60.8920 6.1861 281° West  Level Estimated
Thu 07:06:00 AM 60.9128 5.9525 280° West  Level Estimated
Thu 07:07:00 AM 60.9332 5.7185 280° West  Level Estimated
Thu 07:08:00 AM 60.9532 5.4842 280° West  Level Estimated
Thu 07:09:00 AM 60.9728 5.2496 280° West  Level Estimated
Thu 07:10:00 AM 60.9920 5.0148 280° West  Level Estimated
Thu 07:11:00 AM 61.0108 4.7796 279° West  Level Estimated
Thu 07:12:00 AM 61.0291 4.5442 279° West  Level Estimated
Thu 07:13:00 AM 61.0471 4.3085 279° West  Level Estimated
Thu 07:14:00 AM 61.0647 4.0725 279° West  Level Estimated
Thu 07:15:00 AM 61.0818 3.8363 279° West  Level Estimated
Thu 07:16:00 AM 61.0985 3.5999 278° West  Level Estimated
Thu 07:17:00 AM 61.1148 3.3632 278° West  Level Estimated
Thu 07:18:00 AM 61.1307 3.1262 278° West  Level Estimated
Thu 07:19:00 AM 61.1462 2.8890 278° West  Level Estimated
Thu 07:20:00 AM 61.1613 2.6516 278° West  Level Estimated
Thu 07:21:00 AM 61.1759 2.4140 277° West  Level Estimated
Thu 07:22:00 AM 61.1902 2.1761 277° West  Level Estimated
Thu 07:23:00 AM 61.2040 1.9380 277° West  Level Estimated
Thu 07:24:00 AM 61.2174 1.6998 277° West  Level Estimated
Thu 07:25:00 AM 61.2304 1.4613 277° West  Level Estimated
Thu 07:26:00 AM 61.2429 1.2226 276° West  Level Estimated
Thu 07:27:00 AM 61.2551 0.9837 276° West  Level Estimated
Thu 07:28:00 AM 61.2668 0.7447 276° West  Level Estimated
Thu 07:29:00 AM 61.2781 0.5055 276° West  Level Estimated
Thu 07:30:00 AM 61.2890 0.2661 276° West  Level Estimated
Thu 07:31:00 AM 61.2994 0.0266 275° West  Level Estimated
Thu 07:32:00 AM 61.3095 -0.2131 275° West  Level Estimated
Thu 07:33:00 AM 61.3191 -0.4530 275° West  Level Estimated
Thu 07:34:00 AM 61.3283 -0.6930 275° West  Level Estimated
Thu 07:35:00 AM 61.3370 -0.9331 274° West  Level Estimated
Thu 07:36:00 AM 61.3454 -1.1734 274° West  Level Estimated
Thu 07:37:00 AM 61.3533 -1.4138 274° West  Level Estimated
Thu 07:38:00 AM 61.3608 -1.6543 274° West  Level Estimated
Thu 07:39:00 AM 61.3679 -1.8949 274° West  Level Estimated
Thu 07:40:00 AM 61.3745 -2.1356 273° West  Level Estimated
Thu 07:41:00 AM 61.3807 -2.3765 273° West  Level Estimated
Thu 07:42:00 AM 61.3865 -2.6174 273° West  Level Estimated
Thu 07:43:00 AM 61.3919 -2.8584 273° West  Level Estimated
Thu 07:44:00 AM 61.3968 -3.0995 273° West  Level Estimated
Thu 07:45:00 AM 61.4013 -3.3406 272° West  Level Estimated
Thu 07:46:00 AM 61.4054 -3.5818 272° West  Level Estimated
Thu 07:47:00 AM 61.4091 -3.8231 272° West  Level Estimated
Thu 07:48:00 AM 61.4123 -4.0645 272° West  Level Estimated
Thu 07:49:00 AM 61.4151 -4.3058 271° West  Level Estimated
Thu 07:50:00 AM 61.4175 -4.5473 271° West  Level Estimated
Thu 07:51:00 AM 61.4194 -4.7887 271° West  Level Estimated
Thu 07:52:00 AM 61.4210 -5.0302 271° West  Level Estimated
Thu 07:53:00 AM 61.4221 -5.2717 271° West  Level Estimated
Thu 07:54:00 AM 61.4227 -5.5132 270° West  Level Estimated
Thu 07:55:00 AM 61.4230 -5.7547 270° West  Level Estimated
Thu 07:56:00 AM 61.4228 -5.9963 270° West  Level Estimated
Thu 07:57:00 AM 61.4222 -6.2378 270° West  Level Estimated
Thu 07:58:00 AM 61.4211 -6.4793 270° West  Level Estimated
Thu 07:59:00 AM 61.4197 -6.7208 269° West  Level Estimated
Thu 08:00:00 AM 61.4178 -6.9622 269° West  Level Estimated
Thu 08:01:00 AM 61.4154 -7.2037 269° West  Level Estimated
Thu 08:02:00 AM 61.4127 -7.4451 269° West  Level Estimated
Thu 08:03:00 AM 61.4095 -7.6864 269° West  Level Estimated
Thu 08:04:00 AM 61.4059 -7.9277 268° West  Level Estimated
Thu 08:05:00 AM 61.4019 -8.1689 268° West  Level Estimated
Thu 08:06:00 AM 61.3974 -8.4101 268° West  Level Estimated
Thu 08:07:00 AM 61.3925 -8.6512 268° West  Level Estimated
Thu 08:08:00 AM 61.3872 -8.8922 267° West  Level Estimated
Thu 08:09:00 AM 61.3815 -9.1331 267° West  Level Estimated
Thu 08:10:00 AM 61.3753 -9.3740 267° West  Level Estimated
Thu 08:11:00 AM 61.3687 -9.6147 267° West  Level Estimated
Thu 08:12:00 AM 61.3617 -9.8553 267° West  Level Estimated
Thu 08:13:00 AM 61.3543 -10.0958 266° West  Level Estimated
Thu 08:14:00 AM 61.3464 -10.3363 266° West  Level Estimated
Thu 08:15:00 AM 61.3381 -10.5765 266° West  Level Estimated
Thu 08:16:00 AM 61.3294 -10.8167 266° West  Level Estimated
Thu 08:17:00 AM 61.3203 -11.0567 266° West  Level Estimated
Thu 08:18:00 AM 61.3107 -11.2966 265° West  Level Estimated
Thu 08:19:00 AM 61.3007 -11.5363 265° West  Level Estimated
Thu 08:20:00 AM 61.2903 -11.7759 265° West  Level Estimated
Thu 08:21:00 AM 61.2795 -12.0153 265° West  Level Estimated
Thu 08:22:00 AM 61.2682 -12.2545 265° West  Level Estimated
Thu 08:23:00 AM 61.2566 -12.4936 264° West  Level Estimated
Thu 08:24:00 AM 61.2445 -12.7324 264° West  Level Estimated
Thu 08:25:00 AM 61.2320 -12.9711 264° West  Level Estimated
Thu 08:26:00 AM 61.2191 -13.2096 264° West  Level Estimated
Thu 08:27:00 AM 61.2057 -13.4479 263° West  Level Estimated
Thu 08:28:00 AM 61.1919 -13.6860 263° West  Level Estimated
Thu 08:29:00 AM 61.1778 -13.9239 263° West  Level Estimated
Thu 08:30:00 AM 61.1632 -14.1616 263° West  Level Estimated
Thu 08:31:00 AM 61.1482 -14.3990 263° West  Level Estimated
Thu 08:32:00 AM 61.1327 -14.6363 262° West  Level Estimated
Thu 08:33:00 AM 61.1169 -14.8732 262° West  Level Estimated
Thu 08:34:00 AM 61.1006 -15.1100 262° West  Level Estimated
Thu 08:35:00 AM 61.0840 -15.3465 262° West  Level Estimated
Thu 08:36:00 AM 61.0669 -15.5827 262° West  Level Estimated
Thu 08:37:00 AM 61.0494 -15.8187 261° West  Level Estimated
Thu 08:38:00 AM 61.0315 -16.0544 261° West  Level Estimated
Thu 08:39:00 AM 61.0131 -16.2899 261° West  Level Estimated
Thu 08:40:00 AM 60.9944 -16.5251 261° West  Level Estimated
Thu 08:41:00 AM 60.9753 -16.7600 261° West  Level Estimated
Thu 08:42:00 AM 60.9557 -16.9946 260° West  Level Estimated
Thu 08:43:00 AM 60.9358 -17.2289 260° West  Level Estimated
Thu 08:44:00 AM 60.9154 -17.4629 260° West  Level Estimated
Thu 08:45:00 AM 60.8947 -17.6966 260° West  Level Estimated
Thu 08:46:00 AM 60.8735 -17.9301 260° West  Level Estimated
Thu 08:47:00 AM 60.8519 -18.1632 259° West  Level Estimated
Thu 08:48:00 AM 60.8299 -18.3960 259° West  Level Estimated
Thu 08:49:00 AM 60.8076 -18.6284 259° West  Level Estimated
Thu 08:50:00 AM 60.7848 -18.8605 259° West  Level Estimated
Thu 08:51:00 AM 60.7616 -19.0924 259° West  Level Estimated
Thu 08:52:00 AM 60.7380 -19.3238 258° West  Level Estimated
Thu 08:53:00 AM 60.7140 -19.5549 258° West  Level Estimated
Thu 08:54:00 AM 60.6897 -19.7857 258° West  Level Estimated
Thu 08:55:00 AM 60.6649 -20.0161 258° West  Level Estimated
Thu 08:56:00 AM 60.6397 -20.2462 258° West  Level Estimated
Thu 08:57:00 AM 60.6142 -20.4759 257° West  Level Estimated
Thu 08:58:00 AM 60.5882 -20.7052 257° West  Level Estimated
Thu 08:59:00 AM 60.5619 -20.9342 257° West  Level Estimated
Thu 09:00:00 AM 60.5352 -21.1628 257° West  Level Estimated
Thu 09:01:00 AM 60.5080 -21.3910 257° West  Level Estimated
Thu 09:02:00 AM 60.4805 -21.6189 256° West  Level Estimated
Thu 09:03:00 AM 60.4526 -21.8463 256° West  Level Estimated
Thu 09:04:00 AM 60.4243 -22.0733 256° West  Level Estimated
Thu 09:05:00 AM 60.3957 -22.3000 256° West  Level Estimated
Thu 09:06:00 AM 60.3666 -22.5262 256° West  Level Estimated
Thu 09:07:00 AM 60.3372 -22.7521 255° West  Level Estimated
Thu 09:08:00 AM 60.3074 -22.9775 255° West  Level Estimated
Thu 09:09:00 AM 60.2771 -23.2025 255° West  Level Estimated
Thu 09:10:00 AM 60.2466 -23.4271 255° West  Level Estimated
Thu 09:11:00 AM 60.2156 -23.6513 255° West  Level Estimated
Thu 09:12:00 AM 60.1843 -23.8751 254° West  Level Estimated
Thu 09:13:00 AM 60.1525 -24.0984 254° West  Level Estimated
Thu 09:14:00 AM 60.1205 -24.3213 254° West  Level Estimated
Thu 09:15:00 AM 60.0880 -24.5437 254° West  Level Estimated
Thu 09:16:00 AM 60.0551 -24.7657 254° West  Level Estimated
Thu 09:17:00 AM 60.0219 -24.9873 253° West  Level Estimated
Thu 09:18:00 AM 59.9884 -25.2084 253° West  Level Estimated
Thu 09:19:00 AM 59.9544 -25.4291 253° West  Level Estimated
Thu 09:20:00 AM 59.9201 -25.6493 253° West  Level Estimated
Thu 09:21:00 AM 59.8854 -25.8691 253° West  Level Estimated
Thu 09:22:00 AM 59.8504 -26.0884 252° West  Level Estimated
Thu 09:23:00 AM 59.8149 -26.3072 252° West  Level Estimated
Thu 09:24:00 AM 59.7792 -26.5256 252° West  Level Estimated
Thu 09:25:00 AM 59.7430 -26.7435 252° West  Level Estimated
Thu 09:26:00 AM 59.7066 -26.9609 252° West  Level Estimated
Thu 09:27:00 AM 59.6697 -27.1779 251° West  Level Estimated
Thu 09:28:00 AM 59.6325 -27.3943 251° West  Level Estimated
Thu 09:29:00 AM 59.5949 -27.6103 251° West  Level Estimated
Thu 09:30:00 AM 59.5570 -27.8258 251° West  Level Estimated
Thu 09:31:00 AM 59.5187 -28.0408 251° West  Level Estimated
Thu 09:32:00 AM 59.4801 -28.2554 251° West  Level Estimated
Thu 09:33:00 AM 59.4411 -28.4694 250° West  Level Estimated
Thu 09:34:00 AM 59.4018 -28.6829 250° West  Level Estimated
Thu 09:35:00 AM 59.3621 -28.8960 250° West  Level Estimated
Thu 09:36:00 AM 59.3221 -29.1085 250° West  Level Estimated
Thu 09:37:00 AM 59.2817 -29.3206 250° West  Level Estimated
Thu 09:38:00 AM 59.2410 -29.5321 249° West  Level Estimated
Thu 09:39:00 AM 59.2000 -29.7431 249° West  Level Estimated
Thu 09:40:00 AM 59.1586 -29.9537 249° West  Level Estimated
Thu 09:41:00 AM 59.1169 -30.1637 249° West  Level Estimated
Thu 09:42:00 AM 59.0748 -30.3732 249° West  Level Estimated
Thu 09:43:00 AM 59.0324 -30.5821 249° West  Level Estimated
Thu 09:44:00 AM 58.9896 -30.7906 248° West  Level Estimated
Thu 09:45:00 AM 58.9466 -30.9986 248° West  Level Estimated
Thu 09:46:00 AM 58.9031 -31.2060 248° West  Level Estimated
Thu 09:47:00 AM 58.8594 -31.4129 248° West  Level Estimated
Thu 09:48:00 AM 58.8153 -31.6193 248° West  Level Estimated
Thu 09:49:00 AM 58.7709 -31.8251 247° West  Level Estimated
Thu 09:50:00 AM 58.7262 -32.0305 247° West  Level Estimated
Thu 09:51:00 AM 58.6812 -32.2353 247° West  Level Estimated
Thu 09:52:00 AM 58.6358 -32.4395 247° West  Level Estimated
Thu 09:53:00 AM 58.5901 -32.6433 247° West  Level Estimated
Thu 09:54:00 AM 58.5441 -32.8465 247° West  Level Estimated
Thu 09:55:00 AM 58.4977 -33.0491 246° West  Level Estimated
Thu 09:56:00 AM 58.4511 -33.2513 246° West  Level Estimated
Thu 09:57:00 AM 58.4041 -33.4529 246° West  Level Estimated
Thu 09:58:00 AM 58.3568 -33.6539 246° West  Level Estimated
Thu 09:59:00 AM 58.3092 -33.8544 246° West  Level Estimated
Thu 10:00:00 AM 58.2613 -34.0544 246° West  Level Estimated
Thu 10:01:00 AM 58.2130 -34.2538 245° Southwest  Level Estimated
Thu 10:02:00 AM 58.1645 -34.4527 245° Southwest  Level Estimated
Thu 10:03:00 AM 58.1156 -34.6511 245° Southwest  Level Estimated
Thu 10:04:00 AM 58.0665 -34.8489 245° Southwest  Level Estimated
Thu 10:05:00 AM 58.0170 -35.0461 245° Southwest  Level Estimated
Thu 10:06:00 AM 57.9673 -35.2429 245° Southwest  Level Estimated
Thu 10:07:00 AM 57.9172 -35.4390 244° Southwest  Level Estimated
Thu 10:08:00 AM 57.8668 -35.6346 244° Southwest  Level Estimated
Thu 10:09:00 AM 57.8161 -35.8297 244° Southwest  Level Estimated
Thu 10:10:00 AM 57.7652 -36.0242 244° Southwest  Level Estimated
Thu 10:11:00 AM 57.7139 -36.2182 244° Southwest  Level Estimated
Thu 10:12:00 AM 57.6623 -36.4116 244° Southwest  Level Estimated
Thu 10:13:00 AM 57.6105 -36.6045 243° Southwest  Level Estimated
Thu 10:14:00 AM 57.5583 -36.7968 243° Southwest  Level Estimated
Thu 10:15:00 AM 57.5059 -36.9886 243° Southwest  Level Estimated
Thu 10:16:00 AM 57.4532 -37.1798 243° Southwest  Level Estimated
Thu 10:17:00 AM 57.4001 -37.3704 243° Southwest  Level Estimated
Thu 10:18:00 AM 57.3468 -37.5605 243° Southwest  Level Estimated
Thu 10:19:00 AM 57.2932 -37.7501 242° Southwest  Level Estimated
Thu 10:20:00 AM 57.2394 -37.9391 242° Southwest  Level Estimated
Thu 10:21:00 AM 57.1852 -38.1275 242° Southwest  Level Estimated
Thu 10:22:00 AM 57.1308 -38.3154 242° Southwest  Level Estimated
Thu 10:23:00 AM 57.0760 -38.5028 242° Southwest  Level Estimated
Thu 10:24:00 AM 57.0210 -38.6896 242° Southwest  Level Estimated
Thu 10:25:00 AM 56.9658 -38.8758 241° Southwest  Level Estimated
Thu 10:26:00 AM 56.9102 -39.0615 241° Southwest  Level Estimated
Thu 10:27:00 AM 56.8544 -39.2466 241° Southwest  Level Estimated
Thu 10:28:00 AM 56.7983 -39.4312 241° Southwest  Level Estimated
Thu 10:29:00 AM 56.7419 -39.6152 241° Southwest  Level Estimated
Thu 10:30:00 AM 56.6853 -39.7987 241° Southwest  Level Estimated
Thu 10:31:00 AM 56.6284 -39.9816 241° Southwest  Level Estimated
Thu 10:32:00 AM 56.5712 -40.1640 240° Southwest  Level Estimated
Thu 10:33:00 AM 56.5137 -40.3458 240° Southwest  Level Estimated
Thu 10:34:00 AM 56.4560 -40.5271 240° Southwest  Level Estimated
Thu 10:35:00 AM 56.3981 -40.7078 240° Southwest  Level Estimated
Thu 10:36:00 AM 56.3398 -40.8879 240° Southwest  Level Estimated
Thu 10:37:00 AM 56.2813 -41.0676 240° Southwest  Level Estimated
Thu 10:38:00 AM 56.2226 -41.2466 240° Southwest  Level Estimated
Thu 10:39:00 AM 56.1636 -41.4251 239° Southwest  Level Estimated
Thu 10:40:00 AM 56.1043 -41.6031 239° Southwest  Level Estimated
Thu 10:41:00 AM 56.0448 -41.7805 239° Southwest  Level Estimated
Thu 10:42:00 AM 55.9850 -41.9574 239° Southwest  Level Estimated
Thu 10:43:00 AM 55.9250 -42.1337 239° Southwest  Level Estimated
Thu 10:44:00 AM 55.8647 -42.3095 239° Southwest  Level Estimated
Thu 10:45:00 AM 55.8042 -42.4847 238° Southwest  Level Estimated
Thu 10:46:00 AM 55.7434 -42.6594 238° Southwest  Level Estimated
Thu 10:47:00 AM 55.6824 -42.8335 238° Southwest  Level Estimated
Thu 10:48:00 AM 55.6211 -43.0071 238° Southwest  Level Estimated
Thu 10:49:00 AM 55.5596 -43.1802 238° Southwest  Level Estimated
Thu 10:50:00 AM 55.4958 -43.3582 238° Southwest  Level Estimated
Thu 10:51:00 AM 55.4318 -43.5357 238° Southwest  Level Estimated
Thu 10:51:37 AM 59.9500 -55.8000 237° Southwest 480 552 36,000  Level Gander Center
Thu 10:52:00 AM 55.3675 -43.7128 237° Southwest  Level Estimated
Thu 10:52:37 AM 59.9000 -56.0333 247° West 480 552 36,000  Level Gander Center
Thu 10:53:00 AM 55.3029 -43.8893 237° Southwest  Level Estimated
Thu 10:53:37 AM 59.8667 -56.3167 257° West 480 552 36,000  Level Gander Center
Thu 10:54:00 AM 55.2381 -44.0652 237° Southwest  Level Estimated
Thu 10:54:37 AM 59.7833 -56.5167 230° Southwest 480 552 36,000  Level Gander Center
Thu 10:55:00 AM 55.1730 -44.2406 237° Southwest  Level Estimated
Thu 10:55:37 AM 59.7333 -56.7833 250° West 480 552 36,000  Level Gander Center
Thu 10:56:00 AM 55.1077 -44.4154 237° Southwest  Level Estimated
Thu 10:56:37 AM 59.6833 -57.0333 248° West 480 552 36,000  Level Gander Center
Thu 10:57:37 AM 59.6500 -57.2333 252° West 480 552 36,000  Level Gander Center
Thu 10:58:37 AM 59.5833 -57.4667 241° Southwest 480 552 36,000  Level Gander Center
Thu 10:59:37 AM 59.5333 -57.7000 247° West 480 552 36,000  Level Gander Center
Thu 11:00:37 AM 59.4833 -57.9333 247° West 470 541 36,000  Level Gander Center
Thu 11:01:37 AM 59.4333 -58.1667 247° West 470 541 36,000  Level Gander Center
Thu 11:02:37 AM 59.3833 -58.4000 247° West 470 541 36,000  Level Gander Center
Thu 11:03:37 AM 59.3333 -58.6000 244° Southwest 470 541 36,000  Level Gander Center
Thu 11:04:37 AM 59.2667 -58.8667 244° Southwest 470 541 36,000  Level Gander Center
Thu 11:05:37 AM 59.2167 -59.1000 247° West 470 541 36,000  Level Gander Center
Thu 11:06:37 AM 59.1500 -59.3333 241° Southwest 470 541 36,000  Level Gander Center
Thu 11:07:37 AM 59.1000 -59.5667 247° West 480 552 36,000  Level Gander Center
Thu 11:08:37 AM 59.0500 -59.8000 247° West 480 552 36,000  Level Gander Center
Thu 11:09:37 AM 58.9833 -60.0167 239° Southwest 480 552 36,000  Level Gander Center
Thu 11:10:37 AM 58.9333 -60.2500 248° West 470 541 36,000  Level Gander Center
Thu 11:11:37 AM 58.8667 -60.4833 241° Southwest 470 541 36,000  Level Gander Center
Thu 11:12:37 AM 58.8000 -60.6667 235° Southwest 460 529 36,000  Level Gander Center
Thu 11:13:37 AM 58.7333 -60.9333 244° Southwest 460 529 36,000  Level Gander Center
Thu 11:14:37 AM 58.6667 -61.1500 239° Southwest 460 529 36,000  Level Gander Center
Thu 11:15:37 AM 58.6000 -61.3833 241° Southwest 460 529 36,000  Level Gander Center
Thu 11:16:37 AM 58.5333 -61.5667 235° Southwest 460 529 36,000  Level Gander Center
Thu 11:17:37 AM 58.4667 -61.8000 241° Southwest 460 529 36,000  Level Gander Center
Thu 11:18:37 AM 58.4167 -61.9833 243° Southwest 450 518 36,000  Level Gander Center
Thu 11:19:37 AM 58.3500 -62.2000 240° Southwest 460 529 36,000  Level Gander Center
Thu 11:20:37 AM 58.2833 -62.3833 235° Southwest 460 529 36,000  Level Gander Center
Thu 11:21:37 AM 58.2167 -62.6167 242° Southwest 450 518 36,000  Level Gander Center
Thu 11:22:37 AM 58.1500 -62.8000 235° Southwest 450 518 36,000  Level Gander Center
Thu 11:23:37 AM 58.1000 -63.0167 246° West 460 529 36,000  Level Gander Center
Thu 11:24:37 AM 58.0167 -63.2000 229° Southwest 460 529 36,000  Level Gander Center
Thu 11:25:37 AM 57.9500 -63.4167 240° Southwest 460 529 36,000  Level Gander Center
Thu 11:26:37 AM 57.8833 -63.6333 240° Southwest 450 518 36,000  Level Gander Center
Thu 11:27:37 AM 57.8167 -63.8167 236° Southwest 460 529 36,000  Level Gander Center
Thu 11:28:37 AM 57.7333 -64.0333 234° Southwest 460 529 36,000  Level Gander Center
Thu 11:29:37 AM 57.6833 -64.2500 247° West 460 529 36,000  Level Gander Center
Thu 11:30:37 AM 57.6167 -64.4333 236° Southwest 460 529 36,000  Level Gander Center
Thu 11:31:37 AM 57.5500 -64.6333 238° Southwest 470 541 36,000  Level Gander Center
Thu 11:32:37 AM 57.4667 -64.8500 234° Southwest 470 541 36,000  Level Gander Center
Thu 11:33:37 AM 57.4000 -65.0333 236° Southwest 460 529 36,000  Level Gander Center
Thu 11:34:37 AM 57.3333 -65.2333 238° Southwest 460 529 36,000  Level Gander Center
Thu 11:35:37 AM 57.2500 -65.4167 230° Southwest 470 541 36,000  Level Gander Center
Thu 11:36:37 AM 57.1833 -65.6167 238° Southwest 470 541 36,000  Level Gander Center
Thu 11:37:37 AM 57.1000 -65.8333 235° Southwest 470 541 36,000  Level Gander Center
Thu 11:38:37 AM 57.0500 -66.0333 245° Southwest 460 529 36,000  Level Gander Center
Thu 11:39:37 AM 56.9833 -66.2167 236° Southwest 460 529 36,000  Level Gander Center
Thu 11:40:37 AM 56.9000 -66.4167 233° Southwest 460 529 36,000  Level Gander Center
Thu 11:41:37 AM 56.8333 -66.6167 239° Southwest 470 541 36,000  Level Gander Center
Thu 11:42:37 AM 56.7500 -66.8333 235° Southwest 460 529 36,000  Level Gander Center
Thu 11:43:37 AM 56.6833 -67.0000 234° Southwest 460 529 36,000  Level Gander Center
Thu 11:44:37 AM 56.6000 -67.2000 233° Southwest 470 541 36,000  Level Gander Center
Thu 11:45:37 AM 56.5167 -67.4000 233° Southwest 460 529 36,000  Level Gander Center
Thu 11:46:37 AM 56.4500 -67.5667 234° Southwest 460 529 36,000  Level Gander Center
Thu 11:47:37 AM 56.3833 -67.7667 239° Southwest 460 529 36,000  Level Gander Center
Thu 11:48:37 AM 56.3167 -67.9333 234° Southwest 470 541 36,000  Level Gander Center
Thu 11:49:37 AM 56.2333 -68.1333 233° Southwest 460 529 36,000  Level Gander Center
Thu 11:50:37 AM 56.1500 -68.3333 233° Southwest 460 529 36,000  Level Gander Center
Thu 11:51:37 AM 56.0833 -68.5000 234° Southwest 450 518 36,000  Level Gander Center
Thu 11:52:37 AM 56.0000 -68.7000 233° Southwest 450 518 36,000  Level Gander Center
Thu 11:53:37 AM 55.9333 -68.8667 235° Southwest 450 518 36,000  Level Gander Center
Thu 11:54:37 AM 55.8667 -69.0667 239° Southwest 450 518 36,000  Level Gander Center
Thu 11:55:37 AM 55.7833 -69.2167 225° Southwest 450 518 36,000  Level Gander Center
Thu 11:56:37 AM 55.7167 -69.3833 235° Southwest 450 518 36,000  Level Gander Center
Thu 11:57:37 AM 55.6333 -69.5833 234° Southwest 450 518 36,000  Level Gander Center
Thu 11:58:37 AM 55.5667 -69.7500 235° Southwest 450 518 36,000  Level Gander Center
Thu 11:59:37 AM 55.4833 -69.9333 231° Southwest 450 518 36,000  Level Gander Center
Thu 12:00:37 PM 55.4167 -70.1000 235° Southwest 450 518 36,000  Level Gander Center
Thu 12:01:37 PM 55.3333 -70.2833 231° Southwest 450 518 36,000  Level Gander Center
Thu 12:02:37 PM 55.2500 -70.4500 229° Southwest 450 518 36,000  Level Gander Center
Thu 12:03:37 PM 55.1833 -70.6000 232° Southwest 450 518 36,000  Level Gander Center
Thu 12:04:37 PM 55.1000 -70.8000 234° Southwest 450 518 36,000  Level Gander Center
Thu 12:05:37 PM 55.0167 -70.9833 232° Southwest 440 506 36,000  Level Gander Center
Thu 12:06:37 PM 54.9500 -71.1333 232° Southwest 440 506 36,000  Level Gander Center
Thu 12:07:37 PM 54.8667 -71.3000 229° Southwest 450 518 36,000  Level Gander Center
Thu 12:08:37 PM 54.8000 -71.4833 238° Southwest 440 506 36,000  Level Gander Center
Thu 12:09:37 PM 54.7167 -71.6333 226° Southwest 440 506 36,000  Level Gander Center
Thu 12:10:37 PM 54.6333 -71.7833 226° Southwest 440 506 36,000  Level Gander Center
Thu 12:11:37 PM 54.5667 -71.9500 235° Southwest 440 506 36,000  Level Gander Center
Thu 12:12:37 PM 54.4833 -72.1333 232° Southwest 440 506 36,000  Level Gander Center
Thu 12:13:37 PM 54.4167 -72.2833 233° Southwest 440 506 36,000  Level Gander Center
Thu 12:14:37 PM 54.3500 -72.4333 233° Southwest 440 506 36,000  Level Gander Center
Thu 12:15:37 PM 54.2667 -72.6167 232° Southwest 440 506 36,000  Level Gander Center
Thu 12:16:37 PM 54.1833 -72.7667 227° Southwest 440 506 36,000  Level Gander Center
Thu 12:17:37 PM 54.1167 -72.9167 233° Southwest 440 506 36,000  Level Gander Center
Thu 12:18:37 PM 54.0333 -73.1000 232° Southwest 440 506 36,000  Level Gander Center
Thu 12:19:37 PM 53.9500 -73.2500 227° Southwest 440 506 36,000  Level Gander Center
Thu 12:20:37 PM 53.8667 -73.4333 232° Southwest 440 506 36,000  Level Gander Center
Thu 12:21:37 PM 53.8000 -73.5833 233° Southwest 440 506 36,000  Level Gander Center
Thu 12:22:37 PM 53.7000 -73.7167 218° Southwest 440 506 36,000  Level Gander Center
Thu 12:23:37 PM 53.6000 -73.8333 215° Southwest 440 506 36,000  Level Gander Center
Thu 12:24:37 PM 53.4833 -73.9167 203° Southwest 440 506 36,000  Level Gander Center
Thu 12:25:37 PM 53.3833 -74.0167 211° Southwest 450 518 36,000  Level Gander Center
Thu 12:26:37 PM 53.2667 -74.1000 203° Southwest 440 506 36,000  Level Gander Center
Thu 12:27:37 PM 53.1500 -74.1833 203° Southwest 440 506 36,000  Level Gander Center
Thu 12:28:37 PM 53.0500 -74.2833 211° Southwest 440 506 36,000  Level Gander Center
Thu 12:29:37 PM 52.9500 -74.3667 207° Southwest 440 506 36,000  Level Gander Center
Thu 12:30:37 PM 52.8333 -74.4500 203° Southwest 440 506 36,000  Level Gander Center
Thu 12:32:01 PM 52.6833 -74.5500 202° Southwest 440 506 36,000  Level Montreal Center
Thu 12:33:01 PM 52.5833 -74.6333 207° Southwest 440 506 36,000  Level Montreal Center
Thu 12:34:01 PM 52.4500 -74.7167 201° Southwest 440 506 36,000  Level Montreal Center
Thu 12:35:01 PM 52.3333 -74.8000 204° Southwest 440 506 36,000  Level Montreal Center
Thu 12:36:01 PM 52.2333 -74.9000 211° Southwest 410 472 36,000  Level Montreal Center
Thu 12:37:01 PM 52.1333 -74.9833 207° Southwest 440 506 36,000  Level Montreal Center
Thu 12:38:01 PM 52.0167 -75.0667 204° Southwest 450 518 36,000  Level Montreal Center
Thu 12:39:01 PM 51.9167 -75.1500 207° Southwest 430 495 36,000  Level Montreal Center
Thu 12:40:01 PM 51.8000 -75.2333 204° Southwest 430 495 36,000  Level Montreal Center
Thu 12:41:01 PM 51.7000 -75.3167 207° Southwest 430 495 36,000  Level Montreal Center
Thu 12:42:01 PM 51.5833 -75.4167 208° Southwest 430 495 36,000  Level Montreal Center
Thu 12:43:01 PM 51.4833 -75.4833 203° Southwest 430 495 36,000  Level Montreal Center
Thu 12:44:01 PM 51.3667 -75.5833 208° Southwest 430 495 36,000  Level Montreal Center
Thu 12:45:01 PM 51.2667 -75.6500 203° Southwest 430 495 36,000  Level Montreal Center
Thu 12:46:01 PM 51.1500 -75.7500 208° Southwest 430 495 36,000  Level Montreal Center
Thu 12:47:01 PM 51.0500 -75.8000 197° South 420 483 36,000  Level Montreal Center
Thu 12:48:01 PM 50.9500 -75.8833 208° Southwest 420 483 36,000  Level Montreal Center
Thu 12:49:01 PM 50.8333 -75.9667 204° Southwest 420 483 36,000  Level Montreal Center
Thu 12:50:01 PM 50.7333 -76.0500 208° Southwest 420 483 36,000  Level Montreal Center
Thu 12:51:01 PM 50.6167 -76.1167 200° South 420 483 36,000  Level Montreal Center
Thu 12:52:01 PM 50.5167 -76.2000 208° Southwest 420 483 36,000  Level Montreal Center
Thu 12:53:01 PM 50.4000 -76.2833 204° Southwest 420 483 36,000  Level Montreal Center
Thu 12:54:01 PM 50.3000 -76.3667 208° Southwest 420 483 36,000  Level Montreal Center
Thu 12:55:01 PM 50.2000 -76.4333 203° Southwest 410 472 36,000  Level Montreal Center
Thu 12:56:01 PM 50.0833 -76.5167 205° Southwest 410 472 36,000  Level Montreal Center
Thu 12:57:01 PM 49.9833 -76.6000 208° Southwest 410 472 36,000  Level Montreal Center
Thu 12:58:01 PM 49.8667 -76.6667 200° South 410 472 36,000  Level Montreal Center
Thu 12:59:01 PM 49.7667 -76.7167 198° South 410 472 36,000  Level Montreal Center
Thu 01:00:01 PM 49.6667 -76.8167 213° Southwest 410 472 36,000  Level Montreal Center
Thu 01:01:01 PM 49.5667 -76.8667 198° South 400 460 36,000  Level Montreal Center
Thu 01:02:01 PM 49.4500 -76.9500 205° Southwest 410 472 36,000  Level Montreal Center
Thu 01:03:01 PM 49.3500 -77.0167 203° Southwest 430 495 36,000  Level Montreal Center
Thu 01:04:01 PM 49.2500 -77.1000 209° Southwest 390 449 36,000  Level Montreal Center
Thu 01:05:01 PM 49.1500 -77.1667 204° Southwest 410 472 36,000  Level Montreal Center
Thu 01:06:01 PM 49.0500 -77.2500 209° Southwest 410 472 36,000  Level Montreal Center
Thu 01:07:01 PM 48.9167 -77.3167 198° South 410 472 36,000  Level Montreal Center
Thu 01:08:01 PM 48.8333 -77.3667 202° Southwest 410 472 36,000  Level Montreal Center
Thu 01:09:01 PM 48.7167 -77.4667 209° Southwest 400 460 36,000  Level Montreal Center
Thu 01:10:01 PM 48.6167 -77.5167 198° South 410 472 36,000  Level Montreal Center
Thu 01:11:01 PM 48.5167 -77.5833 204° Southwest 410 472 36,000  Level Montreal Center
Thu 01:12:01 PM 48.4167 -77.6667 209° Southwest 410 472 36,000  Level Montreal Center
Thu 01:13:01 PM 48.3167 -77.7333 204° Southwest 410 472 36,000  Level Montreal Center
Thu 01:14:01 PM 48.2167 -77.8000 204° Southwest 410 472 36,000  Level Montreal Center
Thu 01:15:01 PM 48.1167 -77.8500 198° South 410 472 36,000  Level Montreal Center
Thu 01:16:01 PM 47.9833 -77.9167 199° South 410 472 36,000  Level Montreal Center
Thu 01:17:01 PM 47.8833 -78.0000 209° Southwest 410 472 36,000  Level Montreal Center
Thu 01:18:01 PM 47.7833 -78.0333 193° South 400 460 36,000  Level Montreal Center
Thu 01:19:01 PM 47.6833 -78.1167 209° Southwest 400 460 36,000  Level Montreal Center
Thu 01:20:01 PM 47.5833 -78.1500 193° South 400 460 36,000  Level Montreal Center
Thu 01:21:01 PM 47.4667 -78.2333 206° Southwest 400 460 36,000  Level Montreal Center
Thu 01:22:01 PM 47.3833 -78.3000 208° Southwest 400 460 36,000  Level Montreal Center
Thu 01:23:01 PM 47.2667 -78.3500 196° South 390 449 36,000  Level Montreal Center
Thu 01:24:01 PM 47.1667 -78.4167 204° Southwest 390 449 36,000  Level Montreal Center
Thu 01:25:01 PM 47.0500 -78.4500 191° South 400 460 36,000  Level Montreal Center
Thu 01:26:01 PM 46.9500 -78.5167 204° Southwest 390 449 36,000  Level Montreal Center
Thu 01:27:00 PM 46.8500 -78.5667 199° South 390 449 36,000  Level Montreal Center
Thu 01:28:00 PM 46.7500 -78.6333 205° Southwest 390 449 36,000  Level Montreal Center
Thu 01:29:00 PM 46.6500 -78.7000 205° Southwest 390 449 36,000  Level Montreal Center
Thu 01:30:00 PM 46.5500 -78.7500 199° South 400 460 36,000  Level Montreal Center
Thu 01:31:00 PM 46.4500 -78.8167 205° Southwest 400 460 36,000  Level Montreal Center
Thu 01:35:38 PM 45.9659 -79.0663 205° Southwest 395 455 36,000  Level FlightAware ADS-B
Thu 01:39:51 PM 45.6839 -79.2175 201° Southwest 394 453 36,000  Level FlightAware ADS-B
Thu 01:41:17 PM 45.3893 -79.3737 200° South 389 448 36,000  Level FlightAware ADS-B
Thu 01:41:58 PM 45.3203 -79.4100 200° South 388 447 36,000  Level FlightAware ADS-B
Thu 01:42:35 PM 45.2835 -79.4294 200° South 387 445 36,000  Level FlightAware ADS-B
Thu 01:43:17 PM 45.1907 -79.4782 200° South 387 445 36,000  Level FlightAware ADS-B
Thu 01:43:57 PM 45.1367 -79.5064 200° South 387 445 36,000  Level FlightAware ADS-B
Thu 01:44:58 PM 45.0190 -79.5677 200° South 385 443 36,000  Level FlightAware ADS-B
Thu 01:45:35 PM 45.0083 -79.5733 200° South 381 438 36,000  Level FlightAware ADS-B
Thu 01:46:13 PM 44.8939 -79.6327 200° South 378 435 36,000  Level FlightAware ADS-B
Thu 01:48:32 PM 44.6667 -79.7498 200° South 375 432 36,000  Level FlightAware ADS-B
Thu 01:49:32 PM 44.6107 -79.7787 200° South 367 422 36,000  Level FlightAware ADS-B
Thu 01:50:38 PM 44.4845 -79.8811 210° Southwest 364 419 36,000  Level FlightAware ADS-B
Thu 01:51:18 PM 44.4221 -79.9376 213° Southwest 365 420 36,000  Level FlightAware ADS-B
Thu 01:52:06 PM 44.3543 -79.9985 213° Southwest 365 420 36,000  Level FlightAware ADS-B
Thu 01:52:38 PM 44.3091 -80.0391 213° Southwest 364 419 36,000  Level FlightAware ADS-B
Thu 01:53:18 PM 44.2569 -80.0857 213° Southwest 363 418 36,000  Level FlightAware ADS-B
Thu 01:53:54 PM 44.2006 -80.1360 213° Southwest 363 418 36,000  Level FlightAware ADS-B
Thu 01:54:36 PM 44.1485 -80.1825 213° Southwest 363 418 36,000  Level FlightAware ADS-B
Thu 01:55:36 PM 44.0574 -80.2634 213° Southwest 363 418 36,000  Level FlightAware ADS-B
Thu 01:56:16 PM 43.9996 -80.3146 213° Southwest 363 418 36,000  Level FlightAware ADS-B
Thu 01:56:57 PM 43.9422 -80.3652 212° Southwest 364 419 36,000  Level FlightAware ADS-B
Thu 01:58:38 PM 43.8005 -80.4900 212° Southwest 365 420 36,000  Level FlightAware ADS-B
Thu 01:59:27 PM 43.7811 -80.5070 212° Southwest 364 419 36,000  Level FlightAware ADS-B
Thu 02:00:05 PM 43.6758 -80.5991 212° Southwest 363 418 36,000  Level FlightAware ADS-B (EHLW)
Thu 02:00:38 PM 43.6677 -80.6062 212° Southwest 363 418 36,000  Level FlightAware ADS-B
Thu 02:01:17 PM 43.5726 -80.6890 212° Southwest 363 418 36,000  Level FlightAware ADS-B
Thu 02:01:58 PM 43.5159 -80.7382 212° Southwest 364 419 36,000  Level FlightAware ADS-B
Thu 02:02:38 PM 43.4609 -80.7858 212° Southwest 364 419 36,000  Level FlightAware ADS-B
Thu 02:03:09 PM 43.4190 -80.8222 212° Southwest 365 420 36,000  Level FlightAware ADS-B
Thu 02:04:18 PM 43.3148 -80.9119 212° Southwest 366 421 36,000  Level FlightAware ADS-B
Thu 02:04:58 PM 43.2572 -80.9614 212° Southwest 369 425 36,000  Level FlightAware ADS-B
Thu 02:05:38 PM 43.1999 -81.0106 212° Southwest 369 425 36,000  Level FlightAware ADS-B
Thu 02:06:18 PM 43.1422 -81.0599 212° Southwest 369 425 36,000  Level FlightAware ADS-B
Thu 02:06:57 PM 43.0949 -81.1004 212° Southwest 368 423 36,000  Level FlightAware ADS-B
Thu 02:07:37 PM 43.0262 -81.1559 211° Southwest 371 427 36,000  Level FlightAware ADS-B
Thu 02:08:17 PM 42.9655 -81.1931 204° Southwest 371 427 36,000  Level FlightAware ADS-B
Thu 02:09:17 PM 42.8793 -81.2470 205° Southwest 370 426 36,000  Level FlightAware ADS-B
Thu 02:10:16 PM 42.7799 -81.3083 204° Southwest 369 425 36,000  Level FlightAware ADS-B
Thu 02:10:57 PM 42.7233 -81.3430 204° Southwest 370 426 36,000  Level FlightAware ADS-B
Thu 02:11:36 PM 42.6547 -81.3851 204° Southwest 371 427 36,000  Level FlightAware ADS-B
Thu 02:12:18 PM 42.5911 -81.4240 204° Southwest 371 427 36,000  Level FlightAware ADS-B
Thu 02:12:57 PM 42.5412 -81.4545 204° Southwest 370 426 36,000  Level FlightAware ADS-B
Thu 02:13:38 PM 42.4674 -81.4994 204° Southwest 370 426 36,000  Level FlightAware ADS-B
Thu 02:14:37 PM 42.3915 -81.5454 204° Southwest 367 422 36,000  Level FlightAware ADS-B
Thu 02:15:13 PM 42.3176 -81.5903 204° Southwest 366 421 36,000  Level FlightAware ADS-B
Thu 02:16:58 PM 42.1539 -81.6892 204° Southwest 368 423 36,000  Level FlightAware ADS-B
Thu 02:17:59 PM 42.0611 -81.7451 204° Southwest 368 423 36,000  Level FlightAware ADS-B
Thu 02:19:06 PM 41.9639 -81.8022 204° Southwest 365 420 36,000  Level Cleveland Center
Thu 02:20:08 PM 41.8711 -81.8586 204° Southwest 363 418 36,000  Level Cleveland Center
Thu 02:21:10 PM 41.7783 -81.9136 204° Southwest 362 417 36,000  Level Cleveland Center
Thu 02:22:11 PM 41.6850 -81.9681 204° Southwest 364 419 36,000  Level Cleveland Center
Thu 02:23:13 PM 41.5928 -82.0231 204° Southwest 363 418 36,000  Level Cleveland Center
Thu 02:24:15 PM 41.4856 -82.0861 204° Southwest 360 414 36,000  Level Cleveland Center
Thu 02:25:16 PM 41.3936 -82.1411 204° Southwest 362 417 36,000  Level Cleveland Center
Thu 02:26:18 PM 41.2947 -82.1831 198° South 372 428 36,000  Level Cleveland Center
Thu 02:27:19 PM 41.1956 -82.2197 196° South 370 426 36,000  Level Cleveland Center
Thu 02:28:21 PM 41.0992 -82.2542 195° South 360 414 36,000  Level Cleveland Center
Thu 02:29:23 PM 41.0039 -82.2881 195° South 355 409 36,000  Level Cleveland Center
Thu 02:31:02 PM 40.8333 -82.3492 195° South 341 392 36,000  Level FlightAware ADS-B
Thu 02:35:06 PM 40.4584 -82.4813 195° South 340 391 36,000  Level FlightAware ADS-B
Thu 02:35:48 PM 40.3955 -82.5034 195° South 339 390 36,000  Level FlightAware ADS-B
Thu 02:37:15 PM 40.2641 -82.5491 195° South 338 389 36,000  Level FlightAware ADS-B
Thu 02:37:47 PM 40.2186 -82.5649 195° South 337 388 36,000  Level FlightAware ADS-B
Thu 02:38:26 PM 40.1562 -82.5849 194° South 344 396 36,000  Level FlightAware ADS-B
Thu 02:39:08 PM 40.0895 -82.5922 185° South 354 407 36,000  Level FlightAware ADS-B
Thu 02:39:42 PM 40.0331 -82.5962 183° South 353 406 36,000  Level FlightAware ADS-B
Thu 02:40:28 PM 39.9582 -82.6016 183° South 355 409 36,000  Level FlightAware ADS-B
Thu 02:41:05 PM 39.8972 -82.6057 183° South 355 409 36,000  Level FlightAware ADS-B
Thu 02:41:43 PM 39.8356 -82.6099 183° South 356 410 36,000  Level FlightAware ADS-B
Thu 02:42:47 PM 39.7305 -82.6170 183° South 356 410 36,000  Level FlightAware ADS-B
Thu 02:45:09 PM 39.4992 -82.6326 183° South 361 415 36,000  Level FlightAware ADS-B
Thu 02:46:04 PM 39.4044 -82.6388 183° South 360 414 36,000  Level FlightAware ADS-B
Thu 02:47:03 PM 39.3099 -82.6451 183° South 360 414 36,000  Level FlightAware ADS-B
Thu 02:47:45 PM 39.2361 -82.6500 183° South 359 413 36,000  Level FlightAware ADS-B
Thu 02:53:53 PM 38.7313 -82.6833 183° South 358 412 36,000  Level FlightAware ADS-B
Thu 02:55:21 PM 38.4994 -82.6989 183° South 349 402 36,000  Level Indianapolis Center
Thu 02:56:21 PM 38.4036 -82.7044 183° South 345 397 36,000  Level Indianapolis Center
Thu 02:57:24 PM 38.3083 -82.7128 184° South 343 395 36,000  Level Indianapolis Center
Thu 02:58:24 PM 38.2122 -82.7175 182° South 343 395 36,000  Level Indianapolis Center
Thu 02:59:25 PM 38.1175 -82.7244 183° South 342 394 36,000  Level Indianapolis Center
Thu 03:00:27 PM 38.0233 -82.7297 183° South 338 389 36,000  Level Indianapolis Center
Thu 03:01:28 PM 37.9142 -82.7369 183° South 336 387 36,000  Level Indianapolis Center
Thu 03:02:28 PM 37.8214 -82.7431 183° South 333 383 36,000  Level Indianapolis Center
Thu 03:03:32 PM 37.7286 -82.7519 184° South 334 384 36,000  Level Indianapolis Center
Thu 03:04:33 PM 37.6375 -82.7694 189° South 331 381 36,000  Level Indianapolis Center
Thu 03:05:34 PM 37.5536 -82.7989 196° South 309 356 36,000  Level Indianapolis Center
Thu 03:06:35 PM 37.4792 -82.8503 209° Southwest 304 350 36,000  Level Indianapolis Center
Thu 03:07:36 PM 37.4042 -82.9006 208° Southwest 305 351 36,000  Level Indianapolis Center
Thu 03:08:40 PM 37.3306 -82.9511 209° Southwest 303 349 36,000  Level Indianapolis Center
Thu 03:09:41 PM 37.2439 -83.0092 208° Southwest 303 349 36,000  Level Indianapolis Center
Thu 03:10:42 PM 37.1694 -83.0592 208° Southwest 303 349 36,000  Level Indianapolis Center
Thu 03:11:43 PM 37.0964 -83.1100 209° Southwest 302 348 36,000  Level Indianapolis Center
Thu 03:12:44 PM 37.0203 -83.1589 207° Southwest 308 354 36,000  Level Indianapolis Center
Thu 03:13:47 PM 36.9450 -83.2106 209° Southwest 310 357 36,000  Level Indianapolis Center
Thu 03:14:47 PM 36.8569 -83.2683 208° Southwest 308 354 36,000  Level Indianapolis Center
Thu 03:15:50 PM 36.7808 -83.3186 208° Southwest 308 354 36,000  Level Indianapolis Center
Thu 03:16:50 PM 36.7047 -83.3697 208° Southwest 310 357 36,000  Level Indianapolis Center
Thu 03:17:51 PM 36.6269 -83.4211 208° Southwest 314 361 36,000  Level Indianapolis Center
Thu 03:18:55 PM 36.5497 -83.4717 208° Southwest 314 361 36,000  Level Indianapolis Center
Thu 03:19:56 PM 36.4689 -83.5256 208° Southwest 312 359 36,000  Level Indianapolis Center
Thu 03:20:56 PM 36.3925 -83.5764 208° Southwest 311 358 36,000  Level Indianapolis Center
Thu 03:21:57 PM 36.3144 -83.6269 208° Southwest 314 361 36,000  Level Indianapolis Center
Thu 03:23:00 PM 36.2361 -83.6789 208° Southwest 317 365 36,000  Level Indianapolis Center
Thu 03:24:01 PM 36.1569 -83.7283 207° Southwest 318 366 36,000  Level Indianapolis Center
Thu 03:24:51 PM 36.0789 -83.7819 209° Southwest 313 360 36,000  Level Atlanta Center
Thu 03:25:51 PM 36.0017 -83.8333 208° Southwest 318 366 36,000  Level Atlanta Center
Thu 03:26:51 PM 35.9225 -83.8822 207° Southwest 318 366 36,000  Level Atlanta Center
Thu 03:27:51 PM 35.8308 -83.9133 195° South 324 373 36,000  Level Atlanta Center
Thu 03:28:51 PM 35.7369 -83.9364 191° South 334 384 36,000  Level Atlanta Center
Thu 03:29:51 PM 35.6536 -83.9569 191° South 339 390 36,000  Level Atlanta Center
Thu 03:30:51 PM 35.5617 -83.9800 192° South 339 390 36,000  Level Atlanta Center
Thu 03:31:51 PM 35.4658 -84.0031 191° South 344 396 36,000  Level Atlanta Center
Thu 03:32:51 PM 35.3719 -84.0233 190° South 344 396 36,000  Level Atlanta Center
Thu 03:33:51 PM 35.2781 -84.0489 193° South 344 396 36,000  Level Atlanta Center
Thu 03:34:51 PM 35.1819 -84.0719 191° South 350 403 36,000  Level Atlanta Center
Thu 03:35:51 PM 35.0861 -84.0947 191° South 355 409 36,000  Level Atlanta Center
Thu 03:36:51 PM 34.9922 -84.1175 191° South 355 409 36,000  Level Atlanta Center
Thu 03:37:51 PM 34.8961 -84.1400 191° South 355 409 36,000  Level Atlanta Center
Thu 03:38:51 PM 34.8003 -84.1628 191° South 355 409 36,000  Level Atlanta Center
Thu 03:39:51 PM 34.7061 -84.1878 192° South 355 409 36,000  Level Atlanta Center
Thu 03:40:51 PM 34.6019 -84.2053 188° South 350 403 36,000  Level Atlanta Center
Thu 03:41:51 PM 34.5078 -84.2303 192° South 350 403 36,000  Level Atlanta Center
Thu 03:42:51 PM 34.4097 -84.2528 191° South 350 403 36,000  Level Atlanta Center
Thu 03:43:51 PM 34.3136 -84.2753 191° South 356 410 36,000  Level Atlanta Center
Thu 03:44:51 PM 34.2156 -84.2975 191° South 356 410 36,000  Level Atlanta Center
Thu 03:45:51 PM 34.1258 -84.3197 192° South 356 410 36,000  Level Atlanta Center
Thu 03:46:51 PM 34.0256 -84.3472 193° South 364 419 36,000  Level Atlanta Center
Thu 03:47:51 PM 33.9275 -84.3667 189° South 370 426 36,000  Level Atlanta Center
Thu 03:48:51 PM 33.8272 -84.3914 192° South 370 426 36,000  Level Atlanta Center
Thu 03:49:51 PM 33.7164 -84.4183 191° South 365 420 36,000  Level Atlanta Center
Thu 03:50:51 PM 33.6142 -84.4353 188° South 370 426 36,000  Level Atlanta Center
Thu 03:51:51 PM 33.5078 -84.4350 180° South 380 437 36,000  Level Atlanta Center
Thu 03:52:51 PM 33.3992 -84.4369 181° South 385 443 36,000  Level Atlanta Center
Thu 03:53:51 PM 33.2947 -84.4314 177° South 385 443 36,000  Level Atlanta Center
Thu 03:54:51 PM 33.1842 -84.4311 180° South 385 443 36,000  Level Atlanta Center
Thu 03:55:51 PM 33.0756 -84.4306 180° South 385 443 36,000  Level Atlanta Center
Thu 03:56:51 PM 32.9775 -84.4300 180° South 385 443 36,000 -300 Level Atlanta Center
Thu 03:57:51 PM 32.8669 -84.4272 179° South 385 443 35,400 -500 Descending Atlanta Center
Thu 03:58:51 PM 32.7583 -84.4192 176° South 385 443 35,000 -200 Descending Atlanta Center
Thu 03:59:51 PM 32.6519 -84.4164 179° South 385 443 35,000  Level Atlanta Center
Thu 04:00:51 PM 32.5414 -84.4158 180° South 385 443 35,000  Level Atlanta Center
Thu 04:01:51 PM 32.4308 -84.4006 173° South 390 449 35,000  Level Atlanta Center
Thu 04:02:51 PM 32.3200 -84.3781 170° South 395 455 35,000  Level Atlanta Center
Thu 04:03:51 PM 32.2075 -84.3556 170° South 406 467 35,000  Level Atlanta Center
Thu 04:04:25 PM 32.1228 -84.3375 170° South 405 466 35,000  Level Jacksonville Center
Thu 04:05:24 PM 32.0228 -84.3161 170° South 412 474 35,000  Level Jacksonville Center
Thu 04:06:24 PM 31.9103 -84.2975 172° South 407 468 35,000  Level Jacksonville Center
Thu 04:07:24 PM 31.8000 -84.2761 171° South 407 468 35,000  Level Jacksonville Center
Thu 04:08:24 PM 31.6958 -84.2525 169° South 413 475 35,000  Level Jacksonville Center
Thu 04:09:24 PM 31.5856 -84.2072 161° South 413 475 35,000  Level Jacksonville Center
Thu 04:10:24 PM 31.4711 -84.1567 159° South 418 481 35,000  Level Jacksonville Center
Thu 04:15:48 PM 30.8684 -83.8970 159° South 415 478 35,000  Level FlightAware ADS-B
Thu 04:16:49 PM 30.7588 -83.8508 160° South 416 479 35,000  Level FlightAware ADS-B
Thu 04:17:30 PM 30.6842 -83.8194 160° South 417 480 35,000  Level FlightAware ADS-B
Thu 04:18:27 PM 30.5796 -83.7754 160° South 418 481 35,000  Level FlightAware ADS-B
Thu 04:19:06 PM 30.5121 -83.7471 160° South 422 486 35,000  Level FlightAware ADS-B
Thu 04:19:45 PM 30.4358 -83.7151 160° South 426 490 35,000  Level FlightAware ADS-B
Thu 04:20:25 PM 30.3616 -83.6841 160° South 428 493 35,000  Level FlightAware ADS-B
Thu 04:21:26 PM 30.2496 -83.6372 160° South 428 493 35,000  Level FlightAware ADS-B
Thu 04:21:58 PM 30.1903 -83.6125 160° South 428 493 35,000  Level FlightAware ADS-B
Thu 04:23:25 PM 30.0394 -83.5525 160° South 430 495 35,000  Level Jacksonville Center
Thu 04:24:24 PM 29.9269 -83.5061 160° South 430 495 35,000  Level Jacksonville Center
Thu 04:30:43 PM 29.2150 -83.2104 160° South 433 498 35,000  Level FlightAware ADS-B
Thu 04:35:21 PM 28.6837 -82.9949 160° South 440 506 35,000  Level FlightAware ADS-B
Thu 04:35:58 PM 28.6219 -82.9700 160° South 440 506 35,000  Level FlightAware ADS-B
Thu 04:37:23 PM 28.4509 -82.9011 161° South 443 510 35,000  Level FlightAware ADS-B
Thu 04:37:53 PM 28.3909 -82.8770 161° South 443 510 35,000  Level FlightAware ADS-B
Thu 04:38:59 PM 28.2641 -82.8263 161° South 441 507 35,000  Level FlightAware ADS-B
Thu 04:39:33 PM 28.1979 -82.7998 161° South 441 507 35,000  Level FlightAware ADS-B
Thu 04:41:19 PM 27.9959 -82.7192 161° South 447 514 35,000  Level FlightAware ADS-B
Thu 04:41:59 PM 27.9174 -82.6862 160° South 447 514 35,000  Level FlightAware ADS-B
Thu 04:42:36 PM 27.8476 -82.6451 152° Southeast 457 526 35,000  Level FlightAware ADS-B
Thu 04:43:17 PM 27.7741 -82.5952 149° Southeast 457 526 35,000  Level FlightAware ADS-B
Thu 04:43:59 PM 27.6973 -82.5437 149° Southeast 457 526 35,000  Level FlightAware ADS-B
Thu 04:44:36 PM 27.6298 -82.4986 149° Southeast 456 525 35,000  Level FlightAware ADS-B
Thu 04:45:12 PM 27.5638 -82.4548 149° Southeast 458 527 35,000  Level FlightAware ADS-B
Thu 04:45:57 PM 27.4812 -82.4001 150° Southeast 461 531 35,000  Level FlightAware ADS-B
Thu 04:46:37 PM 27.4246 -82.3626 150° Southeast 463 533 35,000  Level FlightAware ADS-B
Thu 04:47:19 PM 27.3349 -82.3033 150° Southeast 463 533 35,000  Level FlightAware ADS-B
Thu 04:47:54 PM 27.2658 -82.2575 150° Southeast 464 534 35,000  Level FlightAware ADS-B
Thu 04:48:30 PM 27.1994 -82.2138 150° Southeast 464 534 35,000  Level FlightAware ADS-B
Thu 04:49:10 PM 27.1337 -82.1705 150° Southeast 467 537 35,000  Level FlightAware ADS-B
Thu 04:50:59 PM 26.9213 -82.0311 150° Southeast 471 542 35,000  Level FlightAware ADS-B
Thu 04:51:39 PM 26.8497 -81.9842 150° Southeast 472 543 35,000  Level FlightAware ADS-B
Thu 04:52:14 PM 26.7795 -81.9384 150° Southeast 473 544 35,000  Level FlightAware ADS-B
Thu 04:52:58 PM 26.6961 -81.8839 150° Southeast 473 544 35,000  Level FlightAware ADS-B
Thu 04:53:39 PM 26.6211 -81.8350 150° Southeast 473 544 35,000  Level FlightAware ADS-B
Thu 04:54:20 PM 26.5404 -81.7851 151° Southeast 468 539 35,000  Level FlightAware ADS-B
Thu 04:54:50 PM 26.4818 -81.7585 158° South 461 531 35,000  Level FlightAware ADS-B
Thu 04:55:38 PM 26.3827 -81.7205 161° South 460 529 35,000  Level FlightAware ADS-B
Thu 04:56:19 PM 26.3085 -81.6917 161° South 458 527 35,000  Level FlightAware ADS-B
Thu 04:57:00 PM 26.2190 -81.6577 161° South 458 527 35,000  Level FlightAware ADS-B
Thu 04:57:59 PM 26.1022 -81.6136 161° South 456 525 35,000  Level FlightAware ADS-B
Thu 04:58:34 PM 26.0419 -81.5909 161° South 456 525 35,000  Level FlightAware ADS-B
Thu 04:59:19 PM 25.9458 -81.5547 161° South 456 525 35,000  Level FlightAware ADS-B
Thu 04:59:53 PM 25.8714 -81.5267 161° South 457 526 35,000  Level FlightAware ADS-B
Thu 05:00:40 PM 25.7794 -81.4922 161° South 458 527 35,000  Level FlightAware ADS-B
Thu 05:01:10 PM 25.7206 -81.4702 161° South 458 527 35,000  Level FlightAware ADS-B
Thu 05:01:48 PM 25.6405 -81.4402 161° South 457 526 35,000 -456 Level FlightAware ADS-B
Thu 05:02:29 PM 25.5672 -81.4127 161° South 438 504 34,400 -761 Descending FlightAware ADS-B
Thu 05:02:59 PM 25.5192 -81.3967 161° South 455 524 34,100 -867 Descending Miami Center
Thu 05:03:59 PM 25.4119 -81.3558 161° South 441 507 33,100 -1,000 Descending Miami Center
Thu 05:04:59 PM 25.3022 -81.3197 163° South 423 487 32,100 -992 Descending Miami Center
Thu 05:06:00 PM 25.1867 -81.2742 160° South 423 487 31,100 -992 Descending Miami Center
Thu 05:07:00 PM 25.0753 -81.2333 162° South 423 487 30,100 -1,000 Descending Miami Center
Thu 05:08:00 PM 24.9636 -81.1928 162° South 423 487 29,100 -958 Descending Miami Center
Thu 05:08:59 PM 24.8561 -81.1500 160° South 416 479 28,200 -958 Descending Miami Center
Thu 05:09:59 PM 24.7467 -81.1142 163° South 416 479 27,200 -1,000 Descending Miami Center
Thu 05:10:59 PM 24.6339 -81.1081 177° South 411 473 26,200 -1,000 Descending Miami Center
Thu 05:11:59 PM 24.5269 -81.1228 187° South 397 457 25,200 -600 Descending Miami Center
Thu 05:12:59 PM 24.4242 -81.1397 189° South 397 457 25,000 -100 Descending Miami Center
Thu 05:13:59 PM 24.3192 -81.1589 189° South 392 451 25,000  Level Miami Center
Thu 05:14:59 PM 24.2017 -81.1800 189° South 387 445 25,000  Level Miami Center
Thu 05:15:59 PM 24.0967 -81.2014 191° South 394 453 25,000  Level Miami Center
Thu 05:16:59 PM 24.0119 -81.2394 202° Southwest 388 447 25,000  Level Miami Center
Thu 05:18:00 PM 23.9202 -81.3210 219° Southwest  Level FlightAware Approximate
Thu 05:25:00 PM 23.3544 -81.9595 228° Southwest  Level FlightAware Approximate
Thu 05:26:00 PM 23.2770 -82.0540 228° Southwest  Level FlightAware Approximate
Thu 05:27:00 PM 23.1972 -82.1461 226° Southwest  Level FlightAware Approximate
Thu 05:28:00 PM 23.1092 -82.2272 212° Southwest  Level FlightAware Approximate
Thu 05:29:00 PM 23.0387 -82.3261 231° Southwest  Level FlightAware Approximate
Thu 05:30:00 PM 22.9891 -82.4091 223° Southwest  Level Estimated
Thu 05:31:00 PM 22.9891 -82.4091 223° Southwest  Level Estimated
Thu 05:32:00 PM 22.9891 -82.4091 223° Southwest  Level Estimated
Thu 05:33:00 PM 22.9891 -82.4091 223° Southwest  Level Estimated
Thu 05:34:00 PM 22.9891 -82.4091 223° Southwest  Level Estimated
Thu 05:35:00 PM 22.9891 -82.4091 223° Southwest  Level Estimated
Thu 05:36:00 PM 22.9891 -82.4091 223° Southwest  Level Estimated
Thu 05:37:00 PM 22.9891 -82.4091 223° Southwest  Level Estimated
Thu 05:38:00 PM 22.9891 -82.4091 223° Southwest  Level Estimated
Thu 05:39:00 PM 22.9891 -82.4091 223° Southwest  Level Estimated
Thu 05:40:00 PM 22.9891 -82.4091 223° Southwest  Level Estimated
Thu 05:41:00 PM 22.9891 -82.4091 223° Southwest  Level Estimated
Thu 05:42:00 PM 22.9891 -82.4091 223° Southwest  Level Estimated
Thu 05:43:00 PM 22.9891 -82.4091 223° Southwest  Level Estimated
Thu 05:44:00 PM 22.9891 -82.4091 223° Southwest  Level Estimated
Thu 05:45:00 PM 22.9891 -82.4091 223° Southwest  Level Estimated
Thu 05:46:00 PM 22.9891 -82.4091 223° Southwest  Level Estimated
Thu 05:47:00 PM 22.9891 -82.4091 223° Southwest  Level Estimated
Thu 05:48:00 PM 22.9891 -82.4091 223° Southwest  Level Estimated
Thu 05:49:00 PM 22.9891 -82.4091 223° Southwest  Level Estimated
Thu 05:50:00 PM 22.9891 -82.4091 223° Southwest  Level Estimated
Thu 05:51:00 PM 22.9891 -82.4091 223° Southwest  Level Estimated
Thu 05:52:00 PM 22.9891 -82.4091 223° Southwest  Level Estimated

Login

Don't have an account? Register now (free) for customized features, flight alerts, and more!